createdAt,value
2017-03-07T00:00:33.678Z,0
2017-03-07T00:01:14.122Z,0
2017-03-07T00:01:54.555Z,0
2017-03-07T00:02:34.996Z,0
2017-03-07T00:03:15.408Z,0
2017-03-07T00:03:55.868Z,0
2017-03-07T00:04:36.315Z,0
2017-03-07T00:05:16.783Z,0
2017-03-07T00:05:57.223Z,0
2017-03-07T00:06:37.652Z,0
2017-03-07T00:07:18.091Z,0
2017-03-07T00:07:58.508Z,0
2017-03-07T00:08:38.957Z,0
2017-03-07T00:09:19.378Z,0
2017-03-07T00:09:59.757Z,0
2017-03-07T00:10:40.184Z,0
2017-03-07T00:11:20.601Z,0
2017-03-07T00:12:01.054Z,0
2017-03-07T00:12:41.480Z,0
2017-03-07T00:13:21.884Z,0
2017-03-07T00:14:02.296Z,0
2017-03-07T00:14:42.762Z,0
2017-03-07T00:15:23.161Z,0
2017-03-07T00:16:03.560Z,0
2017-03-07T00:16:43.949Z,0
2017-03-07T00:17:24.369Z,0
2017-03-07T00:18:04.768Z,0
2017-03-07T00:18:45.183Z,0
2017-03-07T00:19:25.578Z,0
2017-03-07T00:20:05.985Z,0
2017-03-07T00:20:46.388Z,0
2017-03-07T00:21:26.798Z,0
2017-03-07T00:22:07.184Z,0
2017-03-07T00:22:47.598Z,0
2017-03-07T00:23:28.007Z,0
2017-03-07T00:24:08.382Z,0
2017-03-07T00:24:48.801Z,0
2017-03-07T00:25:29.185Z,0
2017-03-07T00:26:09.610Z,0
2017-03-07T00:26:50.000Z,0
2017-03-07T00:27:30.446Z,0
2017-03-07T00:28:10.885Z,0
2017-03-07T00:28:51.325Z,0
2017-03-07T00:29:31.703Z,0
2017-03-07T00:30:12.095Z,0
2017-03-07T00:30:52.531Z,0
2017-03-07T00:31:32.947Z,0
2017-03-07T00:32:13.343Z,0
2017-03-07T00:32:53.764Z,0
2017-03-07T00:33:34.146Z,0
2017-03-07T00:34:14.552Z,0
2017-03-07T00:34:54.980Z,0
2017-03-07T00:35:35.422Z,0
2017-03-07T00:36:15.805Z,0
2017-03-07T00:36:56.223Z,0
2017-03-07T00:37:36.621Z,0
2017-03-07T00:38:17.044Z,0
2017-03-07T00:38:57.458Z,0
2017-03-07T00:39:37.847Z,0
2017-03-07T00:40:18.270Z,0
2017-03-07T00:40:58.686Z,0
2017-03-07T00:41:39.132Z,0
2017-03-07T00:42:19.494Z,0
2017-03-07T00:42:59.873Z,0
2017-03-07T00:43:40.301Z,0
2017-03-07T00:44:20.695Z,0
2017-03-07T00:45:01.119Z,0
2017-03-07T00:45:41.522Z,0
2017-03-07T00:46:21.897Z,0
2017-03-07T00:47:02.461Z,0
2017-03-07T00:49:00.044Z,0
2017-03-07T00:49:40.450Z,0
2017-03-07T00:50:20.899Z,0
2017-03-07T00:51:01.325Z,0
2017-03-07T00:51:41.733Z,0
2017-03-07T00:52:22.171Z,0
2017-03-07T00:53:02.596Z,0
2017-03-07T00:53:43.001Z,0
2017-03-07T00:54:23.436Z,0
2017-03-07T00:55:03.895Z,0
2017-03-07T00:55:44.331Z,0
2017-03-07T00:56:24.743Z,0
2017-03-07T00:57:05.177Z,0
2017-03-07T00:57:45.620Z,0
2017-03-07T00:58:26.061Z,0
2017-03-07T00:59:06.480Z,0
2017-03-07T00:59:46.904Z,0
2017-03-07T01:00:27.281Z,0
2017-03-07T01:01:07.700Z,0
2017-03-07T01:01:48.110Z,0
2017-03-07T01:02:28.505Z,0
2017-03-07T01:04:41.192Z,0
2017-03-07T01:05:21.662Z,0
2017-03-07T01:06:02.113Z,0
2017-03-07T01:06:42.567Z,0
2017-03-07T01:07:23.004Z,0
2017-03-07T01:08:03.475Z,0
2017-03-07T01:08:43.925Z,0
2017-03-07T01:09:24.361Z,0
2017-03-07T01:10:04.801Z,0
2017-03-07T01:10:45.224Z,0
2017-03-07T01:11:25.656Z,0
2017-03-07T01:12:06.091Z,0
2017-03-07T01:12:46.531Z,0
2017-03-07T01:13:26.945Z,0
2017-03-07T01:14:07.399Z,0
2017-03-07T01:14:47.873Z,0
2017-03-07T01:15:28.260Z,0
2017-03-07T01:16:08.664Z,0
2017-03-07T01:16:49.101Z,0
2017-03-07T01:17:29.491Z,0
2017-03-07T01:18:09.927Z,0
2017-03-07T01:18:50.351Z,0
2017-03-07T01:19:30.755Z,0
2017-03-07T01:20:11.177Z,0
2017-03-07T01:20:51.594Z,0
2017-03-07T01:21:32.051Z,0
2017-03-07T01:22:12.436Z,0
2017-03-07T01:22:52.893Z,0
2017-03-07T01:23:33.273Z,0
2017-03-07T01:24:13.666Z,0
2017-03-07T01:24:54.064Z,0
2017-03-07T01:25:34.473Z,0
2017-03-07T01:26:14.855Z,0
2017-03-07T01:26:55.268Z,0
2017-03-07T01:27:35.669Z,0
2017-03-07T01:28:16.066Z,0
2017-03-07T01:28:56.483Z,0
2017-03-07T01:29:36.879Z,0
2017-03-07T01:30:17.278Z,0
2017-03-07T01:30:57.687Z,0
2017-03-07T01:31:38.077Z,0
2017-03-07T01:32:18.728Z,0
2017-03-07T01:32:59.142Z,0
2017-03-07T01:33:39.545Z,0
2017-03-07T01:34:19.956Z,0
2017-03-07T01:36:47.763Z,0
2017-03-07T01:37:28.198Z,0
2017-03-07T01:38:08.640Z,0
2017-03-07T01:38:49.073Z,0
2017-03-07T01:39:29.506Z,0
2017-03-07T01:40:09.946Z,0
2017-03-07T01:40:50.384Z,0
2017-03-07T01:41:30.816Z,0
2017-03-07T01:42:11.253Z,0
2017-03-07T01:42:51.716Z,0
2017-03-07T01:43:32.144Z,0
2017-03-07T01:44:12.552Z,0
2017-03-07T01:46:30.301Z,0
2017-03-07T01:47:10.733Z,0
2017-03-07T01:47:51.151Z,0
2017-03-07T01:48:31.584Z,0
2017-03-07T01:49:11.996Z,0
2017-03-07T01:49:52.400Z,0
2017-03-07T01:50:32.811Z,0
2017-03-07T01:52:30.384Z,0
2017-03-07T01:53:10.808Z,0
2017-03-07T01:53:51.243Z,0
2017-03-07T01:54:31.654Z,0
2017-03-07T01:55:12.071Z,0
2017-03-07T01:55:52.530Z,0
2017-03-07T01:56:32.966Z,0
2017-03-07T01:57:13.427Z,0
2017-03-07T01:57:53.840Z,0
2017-03-07T01:58:34.264Z,0
2017-03-07T01:59:14.677Z,0
2017-03-07T01:59:55.037Z,0
2017-03-07T02:00:35.437Z,0
2017-03-07T02:01:15.858Z,0
2017-03-07T02:01:56.295Z,0
2017-03-07T02:02:36.750Z,0
2017-03-07T02:03:17.132Z,0
2017-03-07T02:03:57.505Z,0
2017-03-07T02:04:37.889Z,0
2017-03-07T02:05:18.285Z,0
2017-03-07T02:05:58.675Z,0
2017-03-07T02:06:39.105Z,0
2017-03-07T02:07:19.516Z,0
2017-03-07T02:09:37.273Z,0
2017-03-07T02:10:17.722Z,0
2017-03-07T02:10:58.176Z,0
2017-03-07T02:13:15.958Z,0
2017-03-07T02:13:56.380Z,0
2017-03-07T02:14:36.822Z,0
2017-03-07T02:15:17.216Z,0
2017-03-07T02:15:57.595Z,0
2017-03-07T02:16:37.994Z,0
2017-03-07T02:17:18.379Z,0
2017-03-07T02:17:58.780Z,0
2017-03-07T02:18:39.172Z,0
2017-03-07T02:19:19.593Z,0
2017-03-07T02:19:59.976Z,0
2017-03-07T02:20:40.382Z,0
2017-03-07T02:21:20.800Z,0
2017-03-07T02:22:01.203Z,0
2017-03-07T02:22:41.613Z,0
2017-03-07T02:23:22.037Z,0
2017-03-07T02:24:02.455Z,0
2017-03-07T02:24:42.861Z,0
2017-03-07T02:25:23.280Z,0
2017-03-07T02:26:03.891Z,0
2017-03-07T02:26:44.280Z,0
2017-03-07T02:27:24.667Z,0
2017-03-07T02:28:05.115Z,0
2017-03-07T02:28:45.537Z,0
2017-03-07T02:30:43.120Z,0
2017-03-07T02:31:23.574Z,0
2017-03-07T02:32:04.027Z,0
2017-03-07T02:32:44.475Z,0
2017-03-07T02:33:24.915Z,0
2017-03-07T02:34:05.334Z,0
2017-03-07T02:34:45.776Z,0
2017-03-07T02:35:26.198Z,0
2017-03-07T02:36:06.614Z,0
2017-03-07T02:36:47.056Z,0
2017-03-07T02:37:27.494Z,0
2017-03-07T02:38:07.891Z,0
2017-03-07T02:38:48.332Z,0
2017-03-07T02:39:28.770Z,0
2017-03-07T02:40:09.194Z,0
2017-03-07T02:40:49.640Z,0
2017-03-07T02:41:30.026Z,0
2017-03-07T02:42:10.426Z,0
2017-03-07T02:42:50.848Z,0
2017-03-07T02:43:31.254Z,0
2017-03-07T02:44:11.670Z,0
2017-03-07T02:44:52.090Z,0
2017-03-07T02:45:32.500Z,0
2017-03-07T02:46:12.908Z,0
2017-03-07T02:46:53.294Z,0
2017-03-07T02:47:33.723Z,0
2017-03-07T02:48:14.134Z,0
2017-03-07T02:48:54.554Z,0
2017-03-07T02:49:34.945Z,0
2017-03-07T02:50:15.323Z,0
2017-03-07T02:50:55.719Z,0
2017-03-07T02:51:36.116Z,0
2017-03-07T02:52:16.544Z,0
2017-03-07T02:52:56.923Z,0
2017-03-07T02:53:37.425Z,0
2017-03-07T02:54:17.805Z,0
2017-03-07T02:54:58.223Z,0
2017-03-07T02:55:38.620Z,0
2017-03-07T02:56:19.077Z,0
2017-03-07T02:56:59.432Z,0
2017-03-07T02:57:39.843Z,0
2017-03-07T02:58:20.316Z,0
2017-03-07T02:59:00.709Z,0
2017-03-07T02:59:41.114Z,0
2017-03-07T03:00:21.494Z,0
2017-03-07T03:01:01.887Z,0
2017-03-07T03:01:42.260Z,0
2017-03-07T03:02:22.651Z,0
2017-03-07T03:03:03.045Z,0
2017-03-07T03:03:43.438Z,0
2017-03-07T03:04:23.854Z,0
2017-03-07T03:05:04.281Z,0
2017-03-07T03:05:44.674Z,0
2017-03-07T03:06:25.069Z,0
2017-03-07T03:07:05.461Z,0
2017-03-07T03:07:45.878Z,0
2017-03-07T03:08:26.298Z,0
2017-03-07T03:09:06.691Z,0
2017-03-07T03:09:47.109Z,0
2017-03-07T03:10:27.536Z,0
2017-03-07T03:11:07.932Z,0
2017-03-07T03:11:48.321Z,0
2017-03-07T03:12:28.748Z,0
2017-03-07T03:13:10.025Z,0
2017-03-07T03:13:50.412Z,0
2017-03-07T03:14:30.955Z,0
2017-03-07T03:15:11.294Z,0
2017-03-07T03:15:51.668Z,0
2017-03-07T03:16:32.109Z,0
2017-03-07T03:17:12.505Z,0
2017-03-07T03:17:52.921Z,0
2017-03-07T03:20:10.694Z,0
2017-03-07T03:20:51.139Z,0
2017-03-07T03:21:31.600Z,0
2017-03-07T03:22:12.009Z,0
2017-03-07T03:22:52.452Z,0
2017-03-07T03:23:32.883Z,0
2017-03-07T03:24:13.321Z,0
2017-03-07T03:24:53.720Z,0
2017-03-07T03:25:34.147Z,0
2017-03-07T03:26:14.508Z,0
2017-03-07T03:26:54.909Z,0
2017-03-07T03:27:35.322Z,0
2017-03-07T03:28:15.711Z,0
2017-03-07T03:28:56.235Z,0
2017-03-07T03:29:36.623Z,0
2017-03-07T03:30:17.039Z,0
2017-03-07T03:30:57.444Z,0
2017-03-07T03:31:37.879Z,0
2017-03-07T03:32:18.324Z,0
2017-03-07T03:32:58.705Z,0
2017-03-07T03:33:39.088Z,0
2017-03-07T03:34:19.487Z,0
2017-03-07T03:34:59.891Z,0
2017-03-07T03:35:40.459Z,0
2017-03-07T03:36:20.884Z,0
2017-03-07T03:37:01.304Z,0
2017-03-07T03:37:41.684Z,0
2017-03-07T03:38:22.091Z,0
2017-03-07T03:39:02.481Z,0
2017-03-07T03:39:42.903Z,0
2017-03-07T03:40:23.311Z,0
2017-03-07T03:41:03.726Z,0
2017-03-07T03:41:44.110Z,0
2017-03-07T03:42:24.472Z,0
2017-03-07T03:43:04.857Z,0
2017-03-07T03:43:45.245Z,0
2017-03-07T03:44:25.733Z,0
2017-03-07T03:45:06.060Z,0
2017-03-07T03:45:46.509Z,0
2017-03-07T03:46:26.921Z,0
2017-03-07T03:47:07.311Z,0
2017-03-07T03:47:47.722Z,0
2017-03-07T03:48:28.121Z,0
2017-03-07T03:49:08.544Z,0
2017-03-07T03:49:48.918Z,0
2017-03-07T03:50:29.313Z,0
2017-03-07T03:51:09.713Z,0
2017-03-07T03:51:50.116Z,0
2017-03-07T03:52:30.520Z,0
2017-03-07T03:53:10.916Z,0
2017-03-07T03:53:52.062Z,0
2017-03-07T03:54:32.497Z,0
2017-03-07T03:55:12.881Z,0
2017-03-07T03:55:53.286Z,0
2017-03-07T03:56:33.687Z,0
2017-03-07T03:57:14.075Z,0
2017-03-07T03:57:54.510Z,0
2017-03-07T03:58:34.932Z,0
2017-03-07T03:59:15.339Z,0
2017-03-07T03:59:55.735Z,0
2017-03-07T04:00:36.146Z,0
2017-03-07T04:01:16.568Z,0
2017-03-07T04:01:56.943Z,0
2017-03-07T04:02:37.349Z,0
2017-03-07T04:03:17.750Z,0
2017-03-07T04:03:58.136Z,0
2017-03-07T04:04:38.527Z,0
2017-03-07T04:06:56.224Z,0
2017-03-07T04:07:36.696Z,0
2017-03-07T04:08:17.129Z,0
2017-03-07T04:08:57.550Z,0
2017-03-07T04:09:37.969Z,0
2017-03-07T04:10:18.391Z,0
2017-03-07T04:10:58.851Z,0
2017-03-07T04:11:39.275Z,0
2017-03-07T04:12:19.687Z,0
2017-03-07T04:13:00.071Z,0
2017-03-07T04:13:40.455Z,0
2017-03-07T04:14:20.893Z,0
2017-03-07T04:15:01.320Z,0
2017-03-07T04:15:41.733Z,0
2017-03-07T04:16:22.131Z,0
2017-03-07T04:17:02.545Z,0
2017-03-07T04:17:42.927Z,0
2017-03-07T04:18:23.288Z,0
2017-03-07T04:19:03.668Z,0
2017-03-07T04:19:44.080Z,0
2017-03-07T04:20:24.472Z,0
2017-03-07T04:21:04.856Z,0
2017-03-07T04:21:45.333Z,0
2017-03-07T04:22:25.746Z,0
2017-03-07T04:23:06.157Z,0
2017-03-07T04:23:46.560Z,0
2017-03-07T04:24:26.947Z,0
2017-03-07T04:25:07.370Z,0
2017-03-07T04:25:47.787Z,0
2017-03-07T04:26:28.191Z,0
2017-03-07T04:27:08.620Z,0
2017-03-07T04:27:49.026Z,0
2017-03-07T04:28:29.455Z,0
2017-03-07T04:29:09.861Z,0
2017-03-07T04:29:50.283Z,0
2017-03-07T04:30:30.685Z,0
2017-03-07T04:32:43.341Z,0
2017-03-07T04:33:23.770Z,0
2017-03-07T04:34:04.230Z,0
2017-03-07T04:34:44.639Z,0
2017-03-07T04:35:25.079Z,0
2017-03-07T04:36:05.540Z,0
2017-03-07T04:36:45.966Z,0
2017-03-07T04:37:26.385Z,0
2017-03-07T04:38:06.809Z,0
2017-03-07T04:38:47.231Z,0
2017-03-07T04:39:27.629Z,0
2017-03-07T04:40:08.046Z,0
2017-03-07T04:40:48.509Z,0
2017-03-07T04:41:28.924Z,0
2017-03-07T04:42:09.328Z,0
2017-03-07T04:42:49.728Z,0
2017-03-07T04:43:30.135Z,0
2017-03-07T04:44:10.587Z,0
2017-03-07T04:44:51.058Z,0
2017-03-07T04:45:31.466Z,0
2017-03-07T04:46:11.913Z,0
2017-03-07T04:46:52.309Z,0
2017-03-07T04:47:32.726Z,0
2017-03-07T04:48:13.132Z,0
2017-03-07T04:48:53.591Z,0
2017-03-07T04:49:33.996Z,0
2017-03-07T04:50:14.390Z,0
2017-03-07T04:50:54.934Z,0
2017-03-07T04:51:35.336Z,0
2017-03-07T04:52:15.760Z,0
2017-03-07T04:52:56.140Z,0
2017-03-07T04:53:36.547Z,0
2017-03-07T04:55:54.335Z,0
2017-03-07T04:56:34.874Z,0
2017-03-07T04:57:15.305Z,0
2017-03-07T04:57:55.734Z,0
2017-03-07T04:58:36.127Z,0
2017-03-07T04:59:16.557Z,0
2017-03-07T04:59:56.980Z,0
2017-03-07T05:00:37.371Z,0
2017-03-07T05:01:17.771Z,0
2017-03-07T05:01:58.233Z,0
2017-03-07T05:02:38.603Z,0
2017-03-07T05:03:19.004Z,0
2017-03-07T05:03:59.409Z,0
2017-03-07T05:04:39.812Z,0
2017-03-07T05:05:20.227Z,0
2017-03-07T05:06:00.645Z,0
2017-03-07T05:06:41.030Z,0
2017-03-07T05:07:21.464Z,0
2017-03-07T05:08:01.859Z,0
2017-03-07T05:08:42.246Z,0
2017-03-07T05:09:22.720Z,0
2017-03-07T05:10:03.113Z,0
2017-03-07T05:10:43.535Z,0
2017-03-07T05:11:23.971Z,0
2017-03-07T05:12:04.374Z,0
2017-03-07T05:12:44.759Z,0
2017-03-07T05:13:25.200Z,0
2017-03-07T05:14:05.565Z,0
2017-03-07T05:14:46.006Z,0
2017-03-07T05:15:26.454Z,0
2017-03-07T05:16:06.908Z,0
2017-03-07T05:16:47.301Z,0
2017-03-07T05:17:27.721Z,0
2017-03-07T05:18:08.116Z,0
2017-03-07T05:18:48.507Z,0
2017-03-07T05:19:28.908Z,0
2017-03-07T05:20:09.369Z,0
2017-03-07T05:20:49.755Z,0
2017-03-07T05:21:30.186Z,0
2017-03-07T05:22:10.560Z,0
2017-03-07T05:22:50.954Z,0
2017-03-07T05:23:31.351Z,0
2017-03-07T05:24:11.729Z,0
2017-03-07T05:24:52.115Z,0
2017-03-07T05:25:32.526Z,0
2017-03-07T05:26:12.979Z,0
2017-03-07T05:26:53.324Z,0
2017-03-07T05:27:33.702Z,0
2017-03-07T05:28:14.146Z,0
2017-03-07T05:28:54.536Z,0
2017-03-07T05:29:34.928Z,0
2017-03-07T05:30:15.318Z,0
2017-03-07T05:30:55.698Z,0
2017-03-07T05:31:36.090Z,0
2017-03-07T05:32:16.510Z,0
2017-03-07T05:32:57.552Z,0
2017-03-07T05:33:37.922Z,0
2017-03-07T05:34:18.330Z,4
2017-03-07T05:34:58.732Z,4
2017-03-07T05:35:39.135Z,4
2017-03-07T05:36:19.528Z,4
2017-03-07T05:36:59.910Z,4
2017-03-07T05:37:40.353Z,4
2017-03-07T05:38:20.773Z,8
2017-03-07T05:39:01.164Z,8
2017-03-07T05:39:41.561Z,4
2017-03-07T05:40:21.954Z,8
2017-03-07T05:41:02.369Z,8
2017-03-07T05:41:42.799Z,8
2017-03-07T05:42:23.161Z,12
2017-03-07T05:43:03.564Z,12
2017-03-07T05:43:43.967Z,16
2017-03-07T05:44:24.350Z,16
2017-03-07T05:45:04.786Z,20
2017-03-07T05:47:02.415Z,24
2017-03-07T05:47:42.837Z,28
2017-03-07T05:48:23.264Z,28
2017-03-07T05:49:03.666Z,32
2017-03-07T05:49:44.084Z,32
2017-03-07T05:50:24.499Z,40
2017-03-07T05:51:04.927Z,36
2017-03-07T05:51:45.363Z,40
2017-03-07T05:52:25.776Z,36
2017-03-07T05:53:06.194Z,36
2017-03-07T05:53:46.696Z,36
2017-03-07T05:54:27.115Z,32
2017-03-07T05:56:54.985Z,32
2017-03-07T05:57:35.440Z,32
2017-03-07T05:58:15.882Z,32
2017-03-07T05:58:56.320Z,36
2017-03-07T05:59:36.744Z,40
2017-03-07T06:00:17.157Z,40
2017-03-07T06:00:57.567Z,48
2017-03-07T06:01:37.958Z,48
2017-03-07T06:02:18.359Z,56
2017-03-07T06:02:58.770Z,64
2017-03-07T06:03:39.170Z,80
2017-03-07T06:04:19.589Z,92
2017-03-07T06:05:00.000Z,104
2017-03-07T06:05:40.440Z,116
2017-03-07T06:06:20.826Z,120
2017-03-07T06:07:01.223Z,144
2017-03-07T06:07:41.604Z,184
2017-03-07T06:08:21.989Z,204
2017-03-07T06:09:02.395Z,240
2017-03-07T06:09:42.777Z,272
2017-03-07T06:10:23.172Z,332
2017-03-07T06:11:03.610Z,364
2017-03-07T06:11:44.017Z,384
2017-03-07T06:12:24.433Z,404
2017-03-07T06:13:04.923Z,464
2017-03-07T06:13:45.342Z,548
2017-03-07T06:14:25.722Z,660
2017-03-07T06:15:06.201Z,772
2017-03-07T06:15:46.600Z,848
2017-03-07T06:16:27.028Z,916
2017-03-07T06:17:07.452Z,960
2017-03-07T06:17:47.873Z,980
2017-03-07T06:18:28.257Z,956
2017-03-07T06:19:08.699Z,952
2017-03-07T06:19:49.116Z,952
2017-03-07T06:20:29.501Z,1016
2017-03-07T06:21:09.926Z,1096
2017-03-07T06:21:50.324Z,1152
2017-03-07T06:22:30.689Z,1172
2017-03-07T06:23:11.089Z,1164
2017-03-07T06:23:51.486Z,1148
2017-03-07T06:24:31.881Z,1120
2017-03-07T06:25:12.300Z,1108
2017-03-07T06:25:52.683Z,1092
2017-03-07T06:26:33.080Z,1080
2017-03-07T06:27:13.468Z,1072
2017-03-07T06:27:53.894Z,1064
2017-03-07T06:28:34.278Z,1068
2017-03-07T06:29:14.648Z,1064
2017-03-07T06:29:55.050Z,1068
2017-03-07T06:30:35.445Z,1064
2017-03-07T06:31:15.838Z,1060
2017-03-07T06:31:56.229Z,1060
2017-03-07T06:32:36.643Z,1068
2017-03-07T06:33:17.039Z,1092
2017-03-07T06:33:57.434Z,1140
2017-03-07T06:34:37.881Z,1180
2017-03-07T06:35:18.259Z,1208
2017-03-07T06:35:58.655Z,1232
2017-03-07T06:36:39.077Z,1252
2017-03-07T06:37:19.489Z,1288
2017-03-07T06:37:59.876Z,1336
2017-03-07T06:38:40.492Z,1352
2017-03-07T06:39:20.893Z,1336
2017-03-07T06:40:01.299Z,1276
2017-03-07T06:40:41.699Z,1276
2017-03-07T06:41:22.097Z,1304
2017-03-07T06:42:02.539Z,1340
2017-03-07T06:42:43.004Z,1348
2017-03-07T06:43:23.369Z,1308
2017-03-07T06:44:03.797Z,1200
2017-03-07T06:44:44.210Z,1080
2017-03-07T06:45:24.647Z,1040
2017-03-07T06:46:05.089Z,1036
2017-03-07T06:46:45.532Z,1052
2017-03-07T06:47:25.881Z,1008
2017-03-07T06:48:06.269Z,1020
2017-03-07T06:48:46.690Z,1060
2017-03-07T06:49:27.068Z,1080
2017-03-07T06:50:07.461Z,1072
2017-03-07T06:50:47.870Z,1048
2017-03-07T06:51:28.291Z,1064
2017-03-07T06:52:08.680Z,1072
2017-03-07T06:52:49.067Z,1024
2017-03-07T06:53:29.497Z,964
2017-03-07T06:54:10.054Z,948
2017-03-07T06:54:50.488Z,996
2017-03-07T06:55:30.890Z,1080
2017-03-07T06:56:11.320Z,1180
2017-03-07T06:56:51.702Z,1268
2017-03-07T06:57:32.106Z,1368
2017-03-07T06:58:12.491Z,1492
2017-03-07T06:58:52.911Z,1612
2017-03-07T06:59:33.276Z,1748
2017-03-07T07:00:13.715Z,1936
2017-03-07T07:00:54.128Z,2084
2017-03-07T07:01:34.527Z,2172
2017-03-07T07:02:14.927Z,2216
2017-03-07T07:02:55.322Z,2136
2017-03-07T07:03:35.703Z,2060
2017-03-07T07:04:16.114Z,2072
2017-03-07T07:04:56.512Z,2092
2017-03-07T07:05:36.926Z,2124
2017-03-07T07:06:17.401Z,2044
2017-03-07T07:06:57.791Z,1912
2017-03-07T07:07:38.210Z,1832
2017-03-07T07:08:18.590Z,1816
2017-03-07T07:10:16.155Z,1648
2017-03-07T07:10:56.617Z,1484
2017-03-07T07:11:37.002Z,1468
2017-03-07T07:12:17.450Z,1544
2017-03-07T07:12:57.865Z,1580
2017-03-07T07:15:30.808Z,1840
2017-03-07T07:16:12.115Z,1976
2017-03-07T07:16:52.556Z,2032
2017-03-07T07:17:32.987Z,2080
2017-03-07T07:18:13.422Z,2140
2017-03-07T07:18:53.839Z,2152
2017-03-07T07:19:34.252Z,2152
2017-03-07T07:20:14.706Z,2164
2017-03-07T07:20:55.137Z,2188
2017-03-07T07:21:35.581Z,2220
2017-03-07T07:22:16.029Z,2288
2017-03-07T07:22:56.485Z,2432
2017-03-07T07:23:36.897Z,2524
2017-03-07T07:24:17.362Z,2396
2017-03-07T07:24:57.780Z,2212
2017-03-07T07:25:38.269Z,1928
2017-03-07T07:26:18.672Z,1620
2017-03-07T07:26:59.113Z,1488
2017-03-07T07:27:39.548Z,1496
2017-03-07T07:28:19.959Z,1560
2017-03-07T07:29:01.090Z,1652
2017-03-07T07:29:41.484Z,1832
2017-03-07T07:30:22.029Z,2056
2017-03-07T07:31:02.420Z,2272
2017-03-07T07:31:42.816Z,2284
2017-03-07T07:32:23.212Z,2196
2017-03-07T07:33:03.613Z,2080
2017-03-07T07:33:44.020Z,2056
2017-03-07T07:34:24.426Z,2124
2017-03-07T07:35:04.814Z,2176
2017-03-07T07:35:45.209Z,2184
2017-03-07T07:36:25.608Z,2248
2017-03-07T07:37:06.015Z,2476
2017-03-07T07:37:46.415Z,2540
2017-03-07T07:38:26.824Z,2620
2017-03-07T07:39:07.255Z,2736
2017-03-07T07:39:47.685Z,2864
2017-03-07T07:40:28.187Z,2980
2017-03-07T07:41:08.500Z,3104
2017-03-07T07:41:48.912Z,3344
2017-03-07T07:42:29.424Z,3652
2017-03-07T07:43:09.834Z,3888
2017-03-07T07:43:50.228Z,3792
2017-03-07T07:44:30.712Z,3568
2017-03-07T07:45:11.049Z,3468
2017-03-07T07:45:51.422Z,3524
2017-03-07T07:46:31.814Z,3704
2017-03-07T07:47:12.218Z,3940
2017-03-07T07:47:52.661Z,4276
2017-03-07T07:48:33.041Z,4588
2017-03-07T07:49:13.481Z,4636
2017-03-07T07:49:53.901Z,4652
2017-03-07T07:50:34.314Z,4852
2017-03-07T07:51:15.345Z,4952
2017-03-07T07:51:55.780Z,4892
2017-03-07T07:52:36.186Z,4900
2017-03-07T07:53:16.596Z,4948
2017-03-07T07:53:57.011Z,4964
2017-03-07T07:54:37.403Z,5008
2017-03-07T07:55:17.810Z,5480
2017-03-07T07:55:58.226Z,6516
2017-03-07T07:56:38.625Z,7616
2017-03-07T07:57:19.039Z,8324
2017-03-07T07:57:59.450Z,8836
2017-03-07T07:58:39.852Z,9704
2017-03-07T07:59:20.260Z,10496
2017-03-07T08:00:00.695Z,10856
2017-03-07T08:00:41.117Z,10764
2017-03-07T08:01:21.526Z,10072
2017-03-07T08:03:54.404Z,9104
2017-03-07T08:04:34.837Z,9400
2017-03-07T08:05:15.261Z,9584
2017-03-07T08:05:55.692Z,9548
2017-03-07T08:06:36.125Z,9416
2017-03-07T08:07:16.537Z,9012
2017-03-07T08:07:56.950Z,8516
2017-03-07T08:08:37.364Z,8044
2017-03-07T08:09:17.743Z,7676
2017-03-07T08:09:58.181Z,7460
2017-03-07T08:10:38.584Z,7260
2017-03-07T08:11:18.970Z,7120
2017-03-07T08:11:59.452Z,7176
2017-03-07T08:12:39.795Z,7420
2017-03-07T08:13:20.146Z,7736
2017-03-07T08:14:00.552Z,8092
2017-03-07T08:14:40.957Z,8320
2017-03-07T08:15:21.371Z,8540
2017-03-07T08:16:01.784Z,8776
2017-03-07T08:16:42.200Z,8988
2017-03-07T08:17:22.593Z,9016
2017-03-07T08:18:03.001Z,9016
2017-03-07T08:18:43.504Z,8892
2017-03-07T08:19:23.920Z,8512
2017-03-07T08:20:04.315Z,8452
2017-03-07T08:20:44.743Z,8616
2017-03-07T08:21:25.180Z,8604
2017-03-07T08:22:05.578Z,8596
2017-03-07T08:22:45.990Z,8456
2017-03-07T08:23:26.420Z,7956
2017-03-07T08:24:06.813Z,7532
2017-03-07T08:24:47.182Z,7512
2017-03-07T08:25:27.585Z,7748
2017-03-07T08:26:08.025Z,8124
2017-03-07T08:26:48.446Z,8756
2017-03-07T08:27:28.853Z,9088
2017-03-07T08:28:09.266Z,9424
2017-03-07T08:28:49.621Z,9780
2017-03-07T08:29:30.023Z,10392
2017-03-07T08:30:10.437Z,10844
2017-03-07T08:30:50.829Z,11576
2017-03-07T08:31:31.240Z,12080
2017-03-07T08:32:11.607Z,12860
2017-03-07T08:32:52.027Z,11984
2017-03-07T08:33:32.415Z,11280
2017-03-07T08:34:12.802Z,10776
2017-03-07T08:34:53.186Z,10680
2017-03-07T08:35:33.580Z,10832
2017-03-07T08:36:13.990Z,11256
2017-03-07T08:36:54.397Z,10892
2017-03-07T08:37:34.789Z,10488
2017-03-07T08:38:15.207Z,10076
2017-03-07T08:38:55.615Z,9400
2017-03-07T08:39:36.011Z,8160
2017-03-07T08:40:16.449Z,7300
2017-03-07T08:40:56.848Z,6592
2017-03-07T08:41:37.300Z,6228
2017-03-07T08:42:17.703Z,6216
2017-03-07T08:42:58.099Z,5916
2017-03-07T08:43:38.468Z,5160
2017-03-07T08:44:18.873Z,4752
2017-03-07T08:44:59.455Z,4696
2017-03-07T08:45:40.109Z,4448
2017-03-07T08:46:20.558Z,4668
2017-03-07T08:47:00.956Z,5140
2017-03-07T08:47:41.356Z,5796
2017-03-07T08:48:21.777Z,6364
2017-03-07T08:49:02.428Z,6576
2017-03-07T08:49:43.017Z,6560
2017-03-07T08:50:23.408Z,6500
2017-03-07T08:51:03.856Z,6572
2017-03-07T08:51:44.318Z,6732
2017-03-07T08:52:24.828Z,6680
2017-03-07T08:53:05.227Z,6708
2017-03-07T08:53:45.761Z,6740
2017-03-07T08:54:26.139Z,6740
2017-03-07T08:55:06.640Z,7244
2017-03-07T08:55:47.265Z,7984
2017-03-07T08:56:27.638Z,8560
2017-03-07T08:57:08.875Z,9144
2017-03-07T08:57:49.224Z,9888
2017-03-07T08:58:29.618Z,10796
2017-03-07T08:59:10.030Z,12008
2017-03-07T08:59:50.450Z,13136
2017-03-07T09:00:30.977Z,14228
2017-03-07T09:01:11.422Z,14392
2017-03-07T09:03:24.089Z,9852
2017-03-07T09:04:04.504Z,9952
2017-03-07T09:04:44.921Z,10304
2017-03-07T09:05:25.528Z,10984
2017-03-07T09:06:05.940Z,12092
2017-03-07T09:06:46.426Z,12876
2017-03-07T09:07:26.949Z,12408
2017-03-07T09:08:07.452Z,10824
2017-03-07T09:08:47.974Z,9592
2017-03-07T09:09:28.432Z,8748
2017-03-07T09:10:08.835Z,8320
2017-03-07T09:10:49.229Z,8432
2017-03-07T09:11:29.638Z,8620
2017-03-07T09:12:10.041Z,8616
2017-03-07T09:12:50.471Z,7828
2017-03-07T09:13:30.916Z,6824
2017-03-07T09:14:11.323Z,5792
2017-03-07T09:14:51.722Z,5184
2017-03-07T09:15:32.199Z,4920
2017-03-07T09:16:12.638Z,4968
2017-03-07T09:16:53.051Z,5124
2017-03-07T09:17:33.490Z,5616
2017-03-07T09:18:13.888Z,6064
2017-03-07T09:18:54.292Z,6432
2017-03-07T09:19:34.707Z,6708
2017-03-07T09:20:15.133Z,7560
2017-03-07T09:20:55.584Z,7772
2017-03-07T09:21:35.965Z,8252
2017-03-07T09:22:16.355Z,8096
2017-03-07T09:22:56.769Z,7700
2017-03-07T09:23:37.159Z,8016
2017-03-07T09:24:17.637Z,8780
2017-03-07T09:24:58.093Z,10764
2017-03-07T09:25:38.593Z,11372
2017-03-07T09:28:06.480Z,8064
2017-03-07T09:28:46.935Z,7916
2017-03-07T09:29:27.362Z,7840
2017-03-07T09:30:07.724Z,7548
2017-03-07T09:30:48.139Z,7396
2017-03-07T09:31:28.522Z,7004
2017-03-07T09:32:09.013Z,6792
2017-03-07T09:32:49.411Z,7008
2017-03-07T09:33:29.822Z,6724
2017-03-07T09:34:10.210Z,5924
2017-03-07T09:34:50.637Z,4980
2017-03-07T09:35:31.092Z,4916
2017-03-07T09:36:11.536Z,5472
2017-03-07T09:36:52.519Z,5996
2017-03-07T09:37:34.701Z,6080
2017-03-07T09:38:15.129Z,6024
2017-03-07T09:38:55.560Z,6516
2017-03-07T09:39:37.107Z,7652
2017-03-07T09:40:24.676Z,8784
2017-03-07T09:41:04.633Z,9668
2017-03-07T09:41:45.051Z,8716
2017-03-07T09:42:25.473Z,7660
2017-03-07T09:43:05.898Z,7064
2017-03-07T09:43:46.278Z,7188
2017-03-07T09:45:44.039Z,8760
2017-03-07T09:46:24.545Z,8964
2017-03-07T09:47:04.910Z,7404
2017-03-07T09:47:45.347Z,5868
2017-03-07T09:48:25.767Z,5340
2017-03-07T09:49:06.193Z,5152
2017-03-07T09:49:46.585Z,4912
2017-03-07T09:50:27.002Z,4904
2017-03-07T09:51:07.401Z,4928
2017-03-07T09:51:47.902Z,4676
2017-03-07T09:52:28.320Z,4336
2017-03-07T09:53:08.764Z,4096
2017-03-07T09:53:49.138Z,4156
2017-03-07T09:54:29.536Z,4524
2017-03-07T09:55:10.001Z,4852
2017-03-07T09:55:50.404Z,4724
2017-03-07T09:56:30.815Z,5256
2017-03-07T09:57:11.327Z,5632
2017-03-07T09:57:51.761Z,6396
2017-03-07T09:58:32.244Z,7164
2017-03-07T09:59:12.750Z,7336
2017-03-07T09:59:53.150Z,7748
2017-03-07T10:02:20.977Z,5864
2017-03-07T10:03:01.936Z,5332
2017-03-07T10:03:42.295Z,4944
2017-03-07T10:04:22.790Z,5512
2017-03-07T10:05:03.191Z,5568